sensor_id;sensor_type;location;lat;lon;timestamp;temperature;humidity
40622;DHT22;26324;52.040;11.528;2022-09-09T00:04:41;14.10;90.00
40622;DHT22;26324;52.040;11.528;2022-09-09T00:07:37;14.10;89.90
40622;DHT22;26324;52.040;11.528;2022-09-09T00:16:21;14.00;90.10
40622;DHT22;26324;52.040;11.528;2022-09-09T00:19:01;14.00;90.20
40622;DHT22;26324;52.040;11.528;2022-09-09T00:22:08;14.00;90.30
40622;DHT22;26324;52.040;11.528;2022-09-09T00:24:54;14.00;90.30
40622;DHT22;26324;52.040;11.528;2022-09-09T00:30:44;14.10;90.20
40622;DHT22;26324;52.040;11.528;2022-09-09T00:33:03;14.10;90.10
40622;DHT22;26324;52.040;11.528;2022-09-09T00:35:34;14.10;90.00
40622;DHT22;26324;52.040;11.528;2022-09-09T00:38:11;14.10;89.80
40622;DHT22;26324;52.040;11.528;2022-09-09T00:40:49;14.10;89.70
40622;DHT22;26324;52.040;11.528;2022-09-09T00:43:31;14.00;89.50
40622;DHT22;26324;52.040;11.528;2022-09-09T00:51:15;13.80;89.70
40622;DHT22;26324;52.040;11.528;2022-09-09T00:56:37;13.80;89.90
40622;DHT22;26324;52.040;11.528;2022-09-09T01:01:36;13.90;90.10
40622;DHT22;26324;52.040;11.528;2022-09-09T01:04:11;13.90;90.00
40622;DHT22;26324;52.040;11.528;2022-09-09T01:06:41;13.90;90.10
40622;DHT22;26324;52.040;11.528;2022-09-09T01:12:02;13.90;89.90
40622;DHT22;26324;52.040;11.528;2022-09-09T01:17:35;13.90;89.80
40622;DHT22;26324;52.040;11.528;2022-09-09T01:28:26;13.80;89.60
40622;DHT22;26324;52.040;11.528;2022-09-09T01:30:53;13.80;89.70
40622;DHT22;26324;52.040;11.528;2022-09-09T01:33:19;13.80;89.70
40622;DHT22;26324;52.040;11.528;2022-09-09T01:38:17;13.80;89.90
40622;DHT22;26324;52.040;11.528;2022-09-09T01:40:43;13.80;89.80
40622;DHT22;26324;52.040;11.528;2022-09-09T01:43:09;13.90;89.70
40622;DHT22;26324;52.040;11.528;2022-09-09T01:45:35;13.90;89.60
40622;DHT22;26324;52.040;11.528;2022-09-09T01:48:01;13.90;89.50
40622;DHT22;26324;52.040;11.528;2022-09-09T01:50:28;14.00;89.40
40622;DHT22;26324;52.040;11.528;2022-09-09T01:52:57;13.90;89.40
40622;DHT22;26324;52.040;11.528;2022-09-09T01:55:39;13.90;89.40
40622;DHT22;26324;52.040;11.528;2022-09-09T01:58:20;13.90;89.40
40622;DHT22;26324;52.040;11.528;2022-09-09T02:01:00;13.80;89.50
40622;DHT22;26324;52.040;11.528;2022-09-09T02:03:28;13.70;89.70
40622;DHT22;26324;52.040;11.528;2022-09-09T02:06:38;13.70;89.80
40622;DHT22;26324;52.040;11.528;2022-09-09T02:08:57;13.70;89.70
40622;DHT22;26324;52.040;11.528;2022-09-09T02:11:25;13.70;89.70
40622;DHT22;26324;52.040;11.528;2022-09-09T02:14:00;13.80;89.60
40622;DHT22;26324;52.040;11.528;2022-09-09T02:16:43;13.80;89.60
40622;DHT22;26324;52.040;11.528;2022-09-09T02:19:32;13.80;89.40
40622;DHT22;26324;52.040;11.528;2022-09-09T02:22:00;13.80;89.40
40622;DHT22;26324;52.040;11.528;2022-09-09T02:24:29;13.70;89.30
40622;DHT22;26324;52.040;11.528;2022-09-09T02:26:56;13.60;89.40
40622;DHT22;26324;52.040;11.528;2022-09-09T02:29:27;13.60;89.40
40622;DHT22;26324;52.040;11.528;2022-09-09T02:31:56;13.60;89.60
40622;DHT22;26324;52.040;11.528;2022-09-09T02:34:23;13.60;89.70
40622;DHT22;26324;52.040;11.528;2022-09-09T02:36:50;13.60;89.80
40622;DHT22;26324;52.040;11.528;2022-09-09T02:39:18;13.70;90.00
40622;DHT22;26324;52.040;11.528;2022-09-09T02:41:44;13.70;89.90
40622;DHT22;26324;52.040;11.528;2022-09-09T02:44:14;13.70;89.80
40622;DHT22;26324;52.040;11.528;2022-09-09T02:52:42;13.70;89.70
40622;DHT22;26324;52.040;11.528;2022-09-09T02:57:55;13.70;89.70
40622;DHT22;26324;52.040;11.528;2022-09-09T03:00:26;13.80;89.60
40622;DHT22;26324;52.040;11.528;2022-09-09T03:02:53;13.80;89.60
40622;DHT22;26324;52.040;11.528;2022-09-09T03:05:20;13.90;89.40
40622;DHT22;26324;52.040;11.528;2022-09-09T03:07:46;13.90;89.30
40622;DHT22;26324;52.040;11.528;2022-09-09T03:10:12;13.90;89.20
40622;DHT22;26324;52.040;11.528;2022-09-09T03:12:39;13.90;89.30
40622;DHT22;26324;52.040;11.528;2022-09-09T03:15:05;13.90;89.30
40622;DHT22;26324;52.040;11.528;2022-09-09T03:17:31;13.90;89.30
40622;DHT22;26324;52.040;11.528;2022-09-09T03:19:57;14.00;89.10
40622;DHT22;26324;52.040;11.528;2022-09-09T03:22:24;14.00;89.00
40622;DHT22;26324;52.040;11.528;2022-09-09T03:24:51;14.00;89.00
40622;DHT22;26324;52.040;11.528;2022-09-09T03:27:17;14.00;88.90
40622;DHT22;26324;52.040;11.528;2022-09-09T03:29:45;14.00;88.80
40622;DHT22;26324;52.040;11.528;2022-09-09T03:32:11;14.10;88.70
40622;DHT22;26324;52.040;11.528;2022-09-09T03:34:37;14.10;88.60
40622;DHT22;26324;52.040;11.528;2022-09-09T03:37:06;14.10;88.60
40622;DHT22;26324;52.040;11.528;2022-09-09T03:39:32;14.10;88.40
40622;DHT22;26324;52.040;11.528;2022-09-09T03:41:57;14.10;88.40
40622;DHT22;26324;52.040;11.528;2022-09-09T03:44:23;14.10;88.30
40622;DHT22;26324;52.040;11.528;2022-09-09T03:46:48;14.10;88.40
40622;DHT22;26324;52.040;11.528;2022-09-09T03:49:14;14.00;88.50
40622;DHT22;26324;52.040;11.528;2022-09-09T03:51:40;14.00;88.60
40622;DHT22;26324;52.040;11.528;2022-09-09T03:54:07;14.10;88.50
40622;DHT22;26324;52.040;11.528;2022-09-09T03:56:35;14.10;88.40
40622;DHT22;26324;52.040;11.528;2022-09-09T03:59:01;14.10;88.30
40622;DHT22;26324;52.040;11.528;2022-09-09T04:01:27;14.10;88.10
40622;DHT22;26324;52.040;11.528;2022-09-09T04:03:52;14.10;88.10
40622;DHT22;26324;52.040;11.528;2022-09-09T04:06:18;14.00;88.30
40622;DHT22;26324;52.040;11.528;2022-09-09T04:08:45;13.90;88.30
40622;DHT22;26324;52.040;11.528;2022-09-09T04:11:13;14.00;88.30
40622;DHT22;26324;52.040;11.528;2022-09-09T04:13:39;14.00;88.50
40622;DHT22;26324;52.040;11.528;2022-09-09T04:16:05;14.00;88.40
40622;DHT22;26324;52.040;11.528;2022-09-09T04:18:31;13.90;88.50
40622;DHT22;26324;52.040;11.528;2022-09-09T04:20:57;13.80;88.70
40622;DHT22;26324;52.040;11.528;2022-09-09T04:23:26;13.80;89.00
40622;DHT22;26324;52.040;11.528;2022-09-09T04:25:54;13.70;89.30
40622;DHT22;26324;52.040;11.528;2022-09-09T04:28:23;13.70;89.50
40622;DHT22;26324;52.040;11.528;2022-09-09T04:30:49;13.80;89.50
40622;DHT22;26324;52.040;11.528;2022-09-09T04:33:15;13.70;89.50
40622;DHT22;26324;52.040;11.528;2022-09-09T04:35:47;13.70;89.40
40622;DHT22;26324;52.040;11.528;2022-09-09T04:38:14;13.70;89.50
40622;DHT22;26324;52.040;11.528;2022-09-09T04:40:47;13.80;89.40
40622;DHT22;26324;52.040;11.528;2022-09-09T04:43:14;13.80;89.40
40622;DHT22;26324;52.040;11.528;2022-09-09T04:45:40;13.80;89.30
40622;DHT22;26324;52.040;11.528;2022-09-09T04:48:06;13.80;89.40
40622;DHT22;26324;52.040;11.528;2022-09-09T04:50:33;13.90;89.40
40622;DHT22;26324;52.040;11.528;2022-09-09T04:53:05;14.00;89.40
40622;DHT22;26324;52.040;11.528;2022-09-09T04:55:32;14.00;89.20
40622;DHT22;26324;52.040;11.528;2022-09-09T04:58:03;14.10;89.20
40622;DHT22;26324;52.040;11.528;2022-09-09T05:00:30;14.10;88.90
40622;DHT22;26324;52.040;11.528;2022-09-09T05:02:56;14.20;88.60
40622;DHT22;26324;52.040;11.528;2022-09-09T05:05:21;14.30;88.60
40622;DHT22;26324;52.040;11.528;2022-09-09T05:07:47;14.40;88.50
40622;DHT22;26324;52.040;11.528;2022-09-09T05:10:13;14.40;88.50
40622;DHT22;26324;52.040;11.528;2022-09-09T05:12:40;14.50;88.30
40622;DHT22;26324;52.040;11.528;2022-09-09T05:15:05;14.50;88.20
40622;DHT22;26324;52.040;11.528;2022-09-09T05:17:31;14.50;88.10
40622;DHT22;26324;52.040;11.528;2022-09-09T05:19:56;14.60;87.90
40622;DHT22;26324;52.040;11.528;2022-09-09T05:22:22;14.70;87.90
40622;DHT22;26324;52.040;11.528;2022-09-09T05:24:49;14.80;87.30
40622;DHT22;26324;52.040;11.528;2022-09-09T05:27:19;14.80;86.90
40622;DHT22;26324;52.040;11.528;2022-09-09T05:29:45;14.80;87.00
40622;DHT22;26324;52.040;11.528;2022-09-09T05:32:11;14.80;87.20
40622;DHT22;26324;52.040;11.528;2022-09-09T05:34:38;14.90;87.00
40622;DHT22;26324;52.040;11.528;2022-09-09T05:37:04;14.90;87.10
40622;DHT22;26324;52.040;11.528;2022-09-09T05:39:30;15.00;87.00
40622;DHT22;26324;52.040;11.528;2022-09-09T05:41:56;15.00;87.00
40622;DHT22;26324;52.040;11.528;2022-09-09T05:44:22;15.10;86.60
40622;DHT22;26324;52.040;11.528;2022-09-09T05:46:50;15.10;86.60
40622;DHT22;26324;52.040;11.528;2022-09-09T05:49:16;15.10;86.60
40622;DHT22;26324;52.040;11.528;2022-09-09T05:51:43;15.10;86.40
40622;DHT22;26324;52.040;11.528;2022-09-09T05:54:10;15.20;86.40
40622;DHT22;26324;52.040;11.528;2022-09-09T05:56:38;15.20;86.30
40622;DHT22;26324;52.040;11.528;2022-09-09T05:59:06;15.30;86.20
40622;DHT22;26324;52.040;11.528;2022-09-09T06:01:34;15.40;85.90
40622;DHT22;26324;52.040;11.528;2022-09-09T06:03:59;15.50;85.70
40622;DHT22;26324;52.040;11.528;2022-09-09T06:06:30;15.60;85.20
40622;DHT22;26324;52.040;11.528;2022-09-09T06:08:57;15.80;84.70
40622;DHT22;26324;52.040;11.528;2022-09-09T06:11:25;15.80;84.50
40622;DHT22;26324;52.040;11.528;2022-09-09T06:13:52;15.90;84.40
40622;DHT22;26324;52.040;11.528;2022-09-09T06:16:21;15.90;84.40
40622;DHT22;26324;52.040;11.528;2022-09-09T06:18:48;16.00;84.10
40622;DHT22;26324;52.040;11.528;2022-09-09T06:21:23;16.10;84.10
40622;DHT22;26324;52.040;11.528;2022-09-09T06:23:49;16.10;83.70
40622;DHT22;26324;52.040;11.528;2022-09-09T06:26:46;16.10;83.90
40622;DHT22;26324;52.040;11.528;2022-09-09T06:29:11;16.10;83.80
40622;DHT22;26324;52.040;11.528;2022-09-09T06:31:37;16.10;84.10
40622;DHT22;26324;52.040;11.528;2022-09-09T06:34:07;16.10;84.50
40622;DHT22;26324;52.040;11.528;2022-09-09T06:36:36;16.10;84.10
40622;DHT22;26324;52.040;11.528;2022-09-09T06:39:02;16.30;83.90
40622;DHT22;26324;52.040;11.528;2022-09-09T06:41:30;16.40;84.00
40622;DHT22;26324;52.040;11.528;2022-09-09T06:43:56;16.60;83.10
40622;DHT22;26324;52.040;11.528;2022-09-09T06:46:24;16.60;82.20
40622;DHT22;26324;52.040;11.528;2022-09-09T06:48:54;16.70;82.40
40622;DHT22;26324;52.040;11.528;2022-09-09T06:51:27;16.80;82.40
40622;DHT22;26324;52.040;11.528;2022-09-09T06:53:55;16.90;82.30
40622;DHT22;26324;52.040;11.528;2022-09-09T06:56:30;17.00;81.70
40622;DHT22;26324;52.040;11.528;2022-09-09T06:58:58;17.10;81.60
40622;DHT22;26324;52.040;11.528;2022-09-09T07:01:26;17.30;81.20
40622;DHT22;26324;52.040;11.528;2022-09-09T07:03:54;17.50;80.50
40622;DHT22;26324;52.040;11.528;2022-09-09T07:06:23;17.60;79.50
40622;DHT22;26324;52.040;11.528;2022-09-09T07:08:53;17.80;79.20
40622;DHT22;26324;52.040;11.528;2022-09-09T07:11:24;18.00;79.60
40622;DHT22;26324;52.040;11.528;2022-09-09T07:13:51;18.10;78.70
40622;DHT22;26324;52.040;11.528;2022-09-09T07:16:18;18.10;77.60
40622;DHT22;26324;52.040;11.528;2022-09-09T07:18:44;18.00;77.50
40622;DHT22;26324;52.040;11.528;2022-09-09T07:21:11;18.00;78.30
40622;DHT22;26324;52.040;11.528;2022-09-09T07:23:40;18.00;78.90
40622;DHT22;26324;52.040;11.528;2022-09-09T07:26:15;18.00;78.70
40622;DHT22;26324;52.040;11.528;2022-09-09T07:28:41;18.00;78.20
40622;DHT22;26324;52.040;11.528;2022-09-09T07:31:08;18.00;78.70
40622;DHT22;26324;52.040;11.528;2022-09-09T07:33:38;18.00;78.40
40622;DHT22;26324;52.040;11.528;2022-09-09T07:36:08;18.10;78.30
40622;DHT22;26324;52.040;11.528;2022-09-09T07:38:42;18.10;77.60
40622;DHT22;26324;52.040;11.528;2022-09-09T07:41:21;18.10;78.20
40622;DHT22;26324;52.040;11.528;2022-09-09T07:43:49;18.10;77.50
40622;DHT22;26324;52.040;11.528;2022-09-09T07:46:16;18.20;77.50
40622;DHT22;26324;52.040;11.528;2022-09-09T07:48:47;18.30;76.90
40622;DHT22;26324;52.040;11.528;2022-09-09T07:51:18;18.30;76.70
40622;DHT22;26324;52.040;11.528;2022-09-09T07:53:45;18.30;77.30
40622;DHT22;26324;52.040;11.528;2022-09-09T07:56:14;18.30;76.80
40622;DHT22;26324;52.040;11.528;2022-09-09T07:58:40;18.30;76.30
40622;DHT22;26324;52.040;11.528;2022-09-09T08:01:11;18.30;77.60
40622;DHT22;26324;52.040;11.528;2022-09-09T08:03:37;18.40;77.90
40622;DHT22;26324;52.040;11.528;2022-09-09T08:06:05;18.50;76.70
40622;DHT22;26324;52.040;11.528;2022-09-09T08:08:32;18.50;76.80
40622;DHT22;26324;52.040;11.528;2022-09-09T08:11:06;18.60;76.90
40622;DHT22;26324;52.040;11.528;2022-09-09T08:13:36;18.90;75.60
40622;DHT22;26324;52.040;11.528;2022-09-09T08:16:17;19.10;75.10
40622;DHT22;26324;52.040;11.528;2022-09-09T08:18:43;19.40;74.70
40622;DHT22;26324;52.040;11.528;2022-09-09T08:21:13;19.60;74.80
40622;DHT22;26324;52.040;11.528;2022-09-09T08:23:42;19.70;72.70
40622;DHT22;26324;52.040;11.528;2022-09-09T08:26:13;19.90;70.30
40622;DHT22;26324;52.040;11.528;2022-09-09T08:28:40;20.00;69.50
40622;DHT22;26324;52.040;11.528;2022-09-09T08:31:15;19.80;69.90
40622;DHT22;26324;52.040;11.528;2022-09-09T08:33:42;19.80;70.30
40622;DHT22;26324;52.040;11.528;2022-09-09T08:36:12;19.80;72.40
40622;DHT22;26324;52.040;11.528;2022-09-09T08:38:38;20.00;70.40
40622;DHT22;26324;52.040;11.528;2022-09-09T08:41:31;20.00;70.30
40622;DHT22;26324;52.040;11.528;2022-09-09T08:44:26;20.00;69.90
40622;DHT22;26324;52.040;11.528;2022-09-09T08:47:09;20.10;70.10
40622;DHT22;26324;52.040;11.528;2022-09-09T08:49:59;20.30;68.80
40622;DHT22;26324;52.040;11.528;2022-09-09T08:52:37;20.50;69.10
40622;DHT22;26324;52.040;11.528;2022-09-09T08:57:53;20.90;67.10
40622;DHT22;26324;52.040;11.528;2022-09-09T09:00:19;20.90;67.20
40622;DHT22;26324;52.040;11.528;2022-09-09T09:05:31;21.10;66.80
40622;DHT22;26324;52.040;11.528;2022-09-09T09:10:51;21.10;66.70
40622;DHT22;26324;52.040;11.528;2022-09-09T09:16:02;21.30;66.30
40622;DHT22;26324;52.040;11.528;2022-09-09T09:18:32;21.30;65.40
40622;DHT22;26324;52.040;11.528;2022-09-09T09:21:12;21.20;64.40
40622;DHT22;26324;52.040;11.528;2022-09-09T09:24:07;21.10;65.30
40622;DHT22;26324;52.040;11.528;2022-09-09T09:26:46;21.00;65.30
40622;DHT22;26324;52.040;11.528;2022-09-09T09:29:17;21.10;65.60
40622;DHT22;26324;52.040;11.528;2022-09-09T09:31:51;21.20;63.50
40622;DHT22;26324;52.040;11.528;2022-09-09T09:34:17;21.30;65.20
40622;DHT22;26324;52.040;11.528;2022-09-09T09:36:45;21.40;63.30
40622;DHT22;26324;52.040;11.528;2022-09-09T09:39:33;21.30;63.60
40622;DHT22;26324;52.040;11.528;2022-09-09T09:42:11;21.20;63.90
40622;DHT22;26324;52.040;11.528;2022-09-09T09:44:40;21.30;63.80
40622;DHT22;26324;52.040;11.528;2022-09-09T09:49:54;21.70;62.70
40622;DHT22;26324;52.040;11.528;2022-09-09T09:52:23;21.70;62.30
40622;DHT22;26324;52.040;11.528;2022-09-09T09:54:50;21.60;61.90
40622;DHT22;26324;52.040;11.528;2022-09-09T09:57:18;21.30;62.00
40622;DHT22;26324;52.040;11.528;2022-09-09T09:59:59;21.10;63.40
40622;DHT22;26324;52.040;11.528;2022-09-09T10:02:26;21.00;64.10
40622;DHT22;26324;52.040;11.528;2022-09-09T10:05:08;21.10;64.90
40622;DHT22;26324;52.040;11.528;2022-09-09T10:07:38;21.40;63.30
40622;DHT22;26324;52.040;11.528;2022-09-09T10:10:04;21.80;61.40
40622;DHT22;26324;52.040;11.528;2022-09-09T10:15:32;22.20;60.80
40622;DHT22;26324;52.040;11.528;2022-09-09T10:21:17;22.50;60.90
40622;DHT22;26324;52.040;11.528;2022-09-09T10:26:48;22.70;59.60
40622;DHT22;26324;52.040;11.528;2022-09-09T10:32:33;22.70;59.00
40622;DHT22;26324;52.040;11.528;2022-09-09T10:40:33;23.50;58.40
40622;DHT22;26324;52.040;11.528;2022-09-09T10:46:03;23.20;58.30
40622;DHT22;26324;52.040;11.528;2022-09-09T10:51:48;24.00;55.70
40622;DHT22;26324;52.040;11.528;2022-09-09T10:56:58;24.00;54.20
40622;DHT22;26324;52.040;11.528;2022-09-09T10:59:33;24.10;52.70
40622;DHT22;26324;52.040;11.528;2022-09-09T11:02:13;24.00;53.50
40622;DHT22;26324;52.040;11.528;2022-09-09T11:04:48;23.80;53.20
40622;DHT22;26324;52.040;11.528;2022-09-09T11:07:28;23.50;54.40
40622;DHT22;26324;52.040;11.528;2022-09-09T11:09:59;23.50;55.30
40622;DHT22;26324;52.040;11.528;2022-09-09T11:12:27;23.30;54.60
40622;DHT22;26324;52.040;11.528;2022-09-09T11:14:59;23.20;55.10
40622;DHT22;26324;52.040;11.528;2022-09-09T11:17:41;23.10;55.80
40622;DHT22;26324;52.040;11.528;2022-09-09T11:20:11;23.10;56.00
40622;DHT22;26324;52.040;11.528;2022-09-09T11:22:43;23.10;55.90
40622;DHT22;26324;52.040;11.528;2022-09-09T11:33:46;23.60;53.40
40622;DHT22;26324;52.040;11.528;2022-09-09T11:36:42;23.60;53.70
40622;DHT22;26324;52.040;11.528;2022-09-09T11:39:53;23.80;52.80
40622;DHT22;26324;52.040;11.528;2022-09-09T11:42:23;24.50;53.00
40622;DHT22;26324;52.040;11.528;2022-09-09T11:44:49;24.70;49.90
40622;DHT22;26324;52.040;11.528;2022-09-09T11:49:52;25.00;50.00
40622;DHT22;26324;52.040;11.528;2022-09-09T11:52:24;25.10;49.70
40622;DHT22;26324;52.040;11.528;2022-09-09T11:54:54;25.10;50.10
40622;DHT22;26324;52.040;11.528;2022-09-09T11:57:32;25.30;49.70
40622;DHT22;26324;52.040;11.528;2022-09-09T11:59:59;25.30;49.40
40622;DHT22;26324;52.040;11.528;2022-09-09T12:02:29;25.60;49.20
40622;DHT22;26324;52.040;11.528;2022-09-09T12:04:59;25.60;48.40
40622;DHT22;26324;52.040;11.528;2022-09-09T12:12:44;26.20;45.90
40622;DHT22;26324;52.040;11.528;2022-09-09T12:17:46;26.50;46.50
40622;DHT22;26324;52.040;11.528;2022-09-09T12:20:38;26.90;46.80
40622;DHT22;26324;52.040;11.528;2022-09-09T12:26:23;26.80;47.00
40622;DHT22;26324;52.040;11.528;2022-09-09T12:29:05;27.20;46.10
40622;DHT22;26324;52.040;11.528;2022-09-09T12:31:57;26.90;47.40
40622;DHT22;26324;52.040;11.528;2022-09-09T12:36:58;26.90;45.60
40622;DHT22;26324;52.040;11.528;2022-09-09T12:39:38;26.70;46.00
40622;DHT22;26324;52.040;11.528;2022-09-09T12:42:17;26.80;46.40
40622;DHT22;26324;52.040;11.528;2022-09-09T12:44:57;26.80;45.80
40622;DHT22;26324;52.040;11.528;2022-09-09T12:47:41;26.60;45.80
40622;DHT22;26324;52.040;11.528;2022-09-09T12:50:33;26.10;45.20
40622;DHT22;26324;52.040;11.528;2022-09-09T12:53:14;26.10;45.50
40622;DHT22;26324;52.040;11.528;2022-09-09T12:55:51;26.00;44.70
40622;DHT22;26324;52.040;11.528;2022-09-09T12:58:18;26.20;44.40
40622;DHT22;26324;52.040;11.528;2022-09-09T13:00:52;26.00;45.00
40622;DHT22;26324;52.040;11.528;2022-09-09T13:03:20;25.60;44.80
40622;DHT22;26324;52.040;11.528;2022-09-09T13:05:50;25.40;44.90
40622;DHT22;26324;52.040;11.528;2022-09-09T13:08:17;25.30;46.20
40622;DHT22;26324;52.040;11.528;2022-09-09T13:10:55;25.40;46.10
40622;DHT22;26324;52.040;11.528;2022-09-09T13:13:27;25.40;46.80
40622;DHT22;26324;52.040;11.528;2022-09-09T13:15:59;25.20;47.00
40622;DHT22;26324;52.040;11.528;2022-09-09T13:18:31;25.30;47.10
40622;DHT22;26324;52.040;11.528;2022-09-09T13:20:58;26.00;45.10
40622;DHT22;26324;52.040;11.528;2022-09-09T13:23:31;27.30;42.60
40622;DHT22;26324;52.040;11.528;2022-09-09T13:25:59;28.70;41.80
40622;DHT22;26324;52.040;11.528;2022-09-09T13:28:27;30.00;37.60
40622;DHT22;26324;52.040;11.528;2022-09-09T13:31:01;30.40;35.90
40622;DHT22;26324;52.040;11.528;2022-09-09T13:33:37;30.00;36.30
40622;DHT22;26324;52.040;11.528;2022-09-09T13:36:11;30.30;36.70
40622;DHT22;26324;52.040;11.528;2022-09-09T13:38:53;30.40;35.70
40622;DHT22;26324;52.040;11.528;2022-09-09T13:41:21;31.40;35.60
40622;DHT22;26324;52.040;11.528;2022-09-09T13:43:49;32.40;32.80
40622;DHT22;26324;52.040;11.528;2022-09-09T13:46:34;32.50;32.20
40622;DHT22;26324;52.040;11.528;2022-09-09T13:49:23;30.60;35.90
40622;DHT22;26324;52.040;11.528;2022-09-09T13:52:02;28.80;39.40
40622;DHT22;26324;52.040;11.528;2022-09-09T13:54:28;27.60;40.20
40622;DHT22;26324;52.040;11.528;2022-09-09T13:56:56;26.60;42.00
40622;DHT22;26324;52.040;11.528;2022-09-09T13:59:21;25.90;43.50
40622;DHT22;26324;52.040;11.528;2022-09-09T14:01:47;25.60;43.30
40622;DHT22;26324;52.040;11.528;2022-09-09T14:04:14;25.10;44.00
40622;DHT22;26324;52.040;11.528;2022-09-09T14:06:41;25.10;44.00
40622;DHT22;26324;52.040;11.528;2022-09-09T14:09:10;25.20;45.60
40622;DHT22;26324;52.040;11.528;2022-09-09T14:11:35;25.60;47.20
40622;DHT22;26324;52.040;11.528;2022-09-09T14:14:01;26.40;43.80
40622;DHT22;26324;52.040;11.528;2022-09-09T14:16:27;28.10;41.30
40622;DHT22;26324;52.040;11.528;2022-09-09T14:18:53;30.80;36.40
40622;DHT22;26324;52.040;11.528;2022-09-09T14:21:18;32.80;33.20
40622;DHT22;26324;52.040;11.528;2022-09-09T14:23:44;33.70;29.80
40622;DHT22;26324;52.040;11.528;2022-09-09T14:26:09;34.20;29.60
40622;DHT22;26324;52.040;11.528;2022-09-09T14:28:36;33.20;30.00
40622;DHT22;26324;52.040;11.528;2022-09-09T14:31:03;30.80;33.00
40622;DHT22;26324;52.040;11.528;2022-09-09T14:33:30;28.80;37.30
40622;DHT22;26324;52.040;11.528;2022-09-09T14:35:57;27.10;40.70
40622;DHT22;26324;52.040;11.528;2022-09-09T14:38:23;26.10;42.70
40622;DHT22;26324;52.040;11.528;2022-09-09T14:40:48;25.60;44.80
40622;DHT22;26324;52.040;11.528;2022-09-09T14:43:14;26.90;44.10
40622;DHT22;26324;52.040;11.528;2022-09-09T14:45:40;26.70;42.00
40622;DHT22;26324;52.040;11.528;2022-09-09T14:48:05;26.10;43.50
40622;DHT22;26324;52.040;11.528;2022-09-09T14:50:31;25.40;45.90
40622;DHT22;26324;52.040;11.528;2022-09-09T14:52:56;24.80;47.10
40622;DHT22;26324;52.040;11.528;2022-09-09T14:55:22;24.50;48.50
40622;DHT22;26324;52.040;11.528;2022-09-09T14:57:48;24.70;47.00
40622;DHT22;26324;52.040;11.528;2022-09-09T15:00:13;25.50;46.10
40622;DHT22;26324;52.040;11.528;2022-09-09T15:02:39;26.60;43.10
40622;DHT22;26324;52.040;11.528;2022-09-09T15:05:05;27.10;41.30
40622;DHT22;26324;52.040;11.528;2022-09-09T15:07:31;27.60;40.20
40622;DHT22;26324;52.040;11.528;2022-09-09T15:09:57;27.70;40.40
40622;DHT22;26324;52.040;11.528;2022-09-09T15:12:23;27.70;41.90
40622;DHT22;26324;52.040;11.528;2022-09-09T15:14:49;28.30;40.70
40622;DHT22;26324;52.040;11.528;2022-09-09T15:17:16;30.50;35.70
40622;DHT22;26324;52.040;11.528;2022-09-09T15:19:42;32.70;31.80
40622;DHT22;26324;52.040;11.528;2022-09-09T15:22:08;32.50;29.40
40622;DHT22;26324;52.040;11.528;2022-09-09T15:24:34;31.00;31.20
40622;DHT22;26324;52.040;11.528;2022-09-09T15:27:01;29.30;33.60
40622;DHT22;26324;52.040;11.528;2022-09-09T15:29:27;28.10;34.90
40622;DHT22;26324;52.040;11.528;2022-09-09T15:31:55;27.00;37.00
40622;DHT22;26324;52.040;11.528;2022-09-09T15:34:22;28.10;35.40
40622;DHT22;26324;52.040;11.528;2022-09-09T15:36:48;30.00;32.70
40622;DHT22;26324;52.040;11.528;2022-09-09T15:39:15;31.50;29.80
40622;DHT22;26324;52.040;11.528;2022-09-09T15:41:42;33.10;27.90
40622;DHT22;26324;52.040;11.528;2022-09-09T15:44:09;34.10;26.90
40622;DHT22;26324;52.040;11.528;2022-09-09T15:46:49;34.50;25.50
40622;DHT22;26324;52.040;11.528;2022-09-09T15:49:20;35.10;23.80
40622;DHT22;26324;52.040;11.528;2022-09-09T15:51:54;36.10;23.70
40622;DHT22;26324;52.040;11.528;2022-09-09T15:54:23;36.10;23.20
40622;DHT22;26324;52.040;11.528;2022-09-09T15:56:55;35.80;24.00
40622;DHT22;26324;52.040;11.528;2022-09-09T15:59:22;33.00;25.30
40622;DHT22;26324;52.040;11.528;2022-09-09T16:01:49;30.20;28.70
40622;DHT22;26324;52.040;11.528;2022-09-09T16:04:22;28.00;31.50
40622;DHT22;26324;52.040;11.528;2022-09-09T16:06:58;26.70;33.80
40622;DHT22;26324;52.040;11.528;2022-09-09T16:09:26;25.60;35.50
40622;DHT22;26324;52.040;11.528;2022-09-09T16:11:52;25.00;37.10
40622;DHT22;26324;52.040;11.528;2022-09-09T16:14:19;24.60;38.20
40622;DHT22;26324;52.040;11.528;2022-09-09T16:16:45;24.30;39.30
40622;DHT22;26324;52.040;11.528;2022-09-09T16:19:12;24.20;39.80
40622;DHT22;26324;52.040;11.528;2022-09-09T16:21:44;24.00;40.20
40622;DHT22;26324;52.040;11.528;2022-09-09T16:24:13;23.90;40.30
40622;DHT22;26324;52.040;11.528;2022-09-09T16:26:43;23.80;41.10
40622;DHT22;26324;52.040;11.528;2022-09-09T16:29:10;23.70;41.90
40622;DHT22;26324;52.040;11.528;2022-09-09T16:31:36;23.60;42.30
40622;DHT22;26324;52.040;11.528;2022-09-09T16:34:03;23.40;42.60
40622;DHT22;26324;52.040;11.528;2022-09-09T16:36:30;23.30;43.40
40622;DHT22;26324;52.040;11.528;2022-09-09T16:38:59;23.20;43.40
40622;DHT22;26324;52.040;11.528;2022-09-09T16:41:26;23.20;43.50
40622;DHT22;26324;52.040;11.528;2022-09-09T16:44:01;23.20;44.30
40622;DHT22;26324;52.040;11.528;2022-09-09T16:46:28;23.00;44.50
40622;DHT22;26324;52.040;11.528;2022-09-09T16:48:56;23.00;44.30
40622;DHT22;26324;52.040;11.528;2022-09-09T16:51:29;22.90;44.00
40622;DHT22;26324;52.040;11.528;2022-09-09T16:53:55;22.80;44.20
40622;DHT22;26324;52.040;11.528;2022-09-09T16:56:25;22.80;45.60
40622;DHT22;26324;52.040;11.528;2022-09-09T16:58:52;22.70;44.80
40622;DHT22;26324;52.040;11.528;2022-09-09T17:01:21;22.50;45.80
40622;DHT22;26324;52.040;11.528;2022-09-09T17:03:46;22.40;46.80
40622;DHT22;26324;52.040;11.528;2022-09-09T17:06:14;22.30;48.00
40622;DHT22;26324;52.040;11.528;2022-09-09T17:08:40;22.20;49.40
40622;DHT22;26324;52.040;11.528;2022-09-09T17:11:14;22.10;49.10
40622;DHT22;26324;52.040;11.528;2022-09-09T17:13:41;22.00;50.40
40622;DHT22;26324;52.040;11.528;2022-09-09T17:16:07;22.00;50.50
40622;DHT22;26324;52.040;11.528;2022-09-09T17:18:34;22.00;50.50
40622;DHT22;26324;52.040;11.528;2022-09-09T17:21:04;22.00;50.60
40622;DHT22;26324;52.040;11.528;2022-09-09T17:23:29;22.00;50.70
40622;DHT22;26324;52.040;11.528;2022-09-09T17:25:56;21.90;50.90
40622;DHT22;26324;52.040;11.528;2022-09-09T17:28:23;21.90;51.70